Time;durP1;ratioP1;P1;durP2;ratioP2;P2;SDS_P1;SDS_P2;PMS_P1;PMS_P2;Temp;Humidity;BMP_temperature;BMP_pressure;BME280_temperature;BME280_humidity;BME280_pressure;Samples;Min_cycle;Max_cycle;Signal;HPM_P1;HPM_P2
2022/07/19 00:01:24;;;;;;;8.10;5.13;;;21.10;99.90;;;;;;5094609;28;20086;-70
2022/07/19 00:03:50;;;;;;;8.23;5.03;;;21.10;99.90;;;;;;5094433;28;20044;-71
2022/07/19 00:06:16;;;;;;;10.70;5.63;;;21.00;99.90;;;;;;5094472;28;20047;-70
2022/07/19 00:08:41;;;;;;;8.17;5.53;;;21.10;99.90;;;;;;5094200;28;20059;-70
2022/07/19 00:11:07;;;;;;;9.17;4.93;;;21.00;99.90;;;;;;5094530;28;20533;-71
2022/07/19 00:13:33;;;;;;;7.90;5.10;;;21.10;99.90;;;;;;5094343;28;20047;-70
2022/07/19 00:15:59;;;;;;;9.53;4.90;;;21.00;99.90;;;;;;5095149;28;20039;-70
2022/07/19 00:18:24;;;;;;;7.27;5.20;;;21.00;99.90;;;;;;5094761;28;20518;-70
2022/07/19 00:20:50;;;;;;;7.57;4.80;;;21.00;99.90;;;;;;5094193;28;20115;-70
2022/07/19 00:23:16;;;;;;;7.50;5.17;;;21.00;99.90;;;;;;5094418;28;20043;-70
2022/07/19 00:25:41;;;;;;;10.40;5.20;;;21.00;99.90;;;;;;5094841;28;20462;-71
2022/07/19 00:28:08;;;;;;;8.97;4.97;;;20.90;99.90;;;;;;5094595;28;20384;-70
2022/07/19 00:30:33;;;;;;;10.53;5.00;;;20.80;99.90;;;;;;5092971;28;20058;-70
2022/07/19 00:32:59;;;;;;;8.90;5.50;;;20.80;99.90;;;;;;5093219;28;20047;-70
2022/07/19 00:35:25;;;;;;;8.37;5.27;;;20.80;99.90;;;;;;5093914;28;20050;-70
2022/07/19 00:37:51;;;;;;;9.53;5.33;;;20.80;99.90;;;;;;5093952;28;20051;-70
2022/07/19 00:40:23;;;;;;;9.43;5.07;;;20.70;99.90;;;;;;5093833;28;20044;-70
2022/07/19 00:42:54;;;;;;;10.63;5.53;;;20.70;99.90;;;;;;5093971;28;20051;-70
2022/07/19 00:45:20;;;;;;;8.17;5.63;;;20.70;99.90;;;;;;5092653;28;20170;-70
2022/07/19 00:47:46;;;;;;;8.17;5.63;;;20.70;99.90;;;;;;5093634;28;20126;-70
2022/07/19 00:50:12;;;;;;;10.60;5.87;;;20.80;99.90;;;;;;5093937;28;20124;-70
2022/07/19 00:52:39;;;;;;;11.77;5.80;;;20.70;99.90;;;;;;5092921;28;20479;-70
2022/07/19 00:55:07;;;;;;;8.67;4.80;;;20.70;99.90;;;;;;5093820;28;20048;-71
2022/07/19 00:57:35;;;;;;;9.27;5.90;;;20.70;99.90;;;;;;5093816;28;20039;-71
2022/07/19 01:00:01;;;;;;;9.53;5.23;;;20.60;99.90;;;;;;5093808;28;20040;-71
2022/07/19 01:02:28;;;;;;;7.93;5.83;;;20.60;99.90;;;;;;5092784;28;20055;-70
2022/07/19 01:04:54;;;;;;;9.30;5.23;;;20.60;99.90;;;;;;5092756;28;20105;-70
2022/07/19 01:07:19;;;;;;;8.33;5.30;;;20.60;99.90;;;;;;5093378;28;20392;-70
2022/07/19 01:09:45;;;;;;;10.60;5.83;;;20.60;99.90;;;;;;5093669;28;20083;-70
2022/07/19 01:12:11;;;;;;;9.40;5.70;;;20.50;99.90;;;;;;5092580;28;20044;-71
2022/07/19 01:14:37;;;;;;;11.83;5.50;;;20.50;99.90;;;;;;5092503;28;20044;-70
2022/07/19 01:17:04;;;;;;;9.03;5.00;;;20.50;99.90;;;;;;5075575;28;20097;-71
2022/07/19 01:19:29;;;;;;;8.07;5.57;;;20.40;99.90;;;;;;5093620;28;20442;-70
2022/07/19 01:21:55;;;;;;;12.80;6.27;;;20.40;99.90;;;;;;5093352;28;20100;-70
2022/07/19 01:24:21;;;;;;;8.50;5.43;;;20.40;99.90;;;;;;5093301;28;20051;-71
2022/07/19 01:26:47;;;;;;;10.60;5.43;;;20.30;99.90;;;;;;5093473;28;20093;-70
2022/07/19 01:29:16;;;;;;;9.60;5.00;;;20.30;99.90;;;;;;5094078;28;20052;-71
2022/07/19 01:31:42;;;;;;;10.43;5.70;;;20.30;99.90;;;;;;5093340;28;20048;-70
2022/07/19 01:34:08;;;;;;;9.10;5.60;;;20.20;99.90;;;;;;5093323;28;20055;-70
2022/07/19 01:36:34;;;;;;;12.63;5.37;;;20.20;99.90;;;;;;5093318;28;20040;-71
2022/07/19 01:39:00;;;;;;;9.40;5.97;;;20.20;99.90;;;;;;5093275;28;20048;-75
2022/07/19 01:41:26;;;;;;;11.60;5.33;;;20.20;99.90;;;;;;5093866;28;20120;-70
2022/07/19 01:43:51;;;;;;;8.03;5.53;;;20.20;99.90;;;;;;5093427;28;20048;-70
2022/07/19 01:46:17;;;;;;;9.53;5.40;;;20.20;99.90;;;;;;5093203;28;20052;-70
2022/07/19 01:48:43;;;;;;;9.87;5.33;;;20.10;99.90;;;;;;5094103;28;20161;-70
2022/07/19 01:51:09;;;;;;;13.40;5.57;;;20.20;99.90;;;;;;5093927;28;20047;-70
2022/07/19 01:53:35;;;;;;;9.77;6.07;;;20.10;99.90;;;;;;5093140;28;20051;-70
2022/07/19 01:56:04;;;;;;;10.87;5.80;;;20.10;99.90;;;;;;5093029;28;20384;-70
2022/07/19 01:58:30;;;;;;;11.43;6.00;;;20.00;99.90;;;;;;5092015;28;20048;-70
2022/07/19 02:00:56;;;;;;;8.03;5.57;;;20.00;99.90;;;;;;5093066;28;20044;-70
2022/07/19 02:03:21;;;;;;;8.03;5.60;;;20.00;99.90;;;;;;5093184;28;20407;-70
2022/07/19 02:05:47;;;;;;;10.47;6.10;;;20.00;99.90;;;;;;5092775;28;20047;-71
2022/07/19 02:08:13;;;;;;;9.30;5.63;;;20.10;99.90;;;;;;5091868;28;20135;-71
2022/07/19 02:10:39;;;;;;;8.50;5.33;;;20.10;99.90;;;;;;5092879;28;20055;-71
2022/07/19 02:13:04;;;;;;;11.90;5.60;;;20.00;99.90;;;;;;5092823;28;20148;-71
2022/07/19 02:15:30;;;;;;;8.03;5.23;;;20.00;99.90;;;;;;5093357;28;20472;-70
2022/07/19 02:17:56;;;;;;;7.13;4.83;;;19.90;99.90;;;;;;5093386;28;20044;-71
2022/07/19 02:20:22;;;;;;;8.83;5.40;;;19.90;99.90;;;;;;5092657;28;20051;-72
2022/07/19 02:22:48;;;;;;;9.93;5.70;;;19.90;99.90;;;;;;5094837;28;20126;-70
2022/07/19 02:25:14;;;;;;;11.53;5.67;;;19.90;99.90;;;;;;5096443;28;20059;-70
2022/07/19 02:27:40;;;;;;;9.43;5.87;;;19.90;99.90;;;;;;5097008;28;20357;-70
2022/07/19 02:30:07;;;;;;;10.53;5.43;;;19.90;99.90;;;;;;5096435;28;20051;-71
2022/07/19 02:32:33;;;;;;;11.50;6.47;;;19.80;99.90;;;;;;5096330;28;20040;-70
2022/07/19 02:34:59;;;;;;;10.83;5.47;;;19.80;99.90;;;;;;5096565;28;20395;-70
2022/07/19 02:37:24;;;;;;;10.27;6.50;;;19.80;99.90;;;;;;5096995;28;20131;-70
2022/07/19 02:39:50;;;;;;;11.60;6.57;;;19.90;99.90;;;;;;5096360;28;20043;-70
2022/07/19 02:42:16;;;;;;;19.13;6.43;;;19.80;99.90;;;;;;5096173;28;20091;-71
2022/07/19 02:44:41;;;;;;;8.97;5.30;;;19.80;99.90;;;;;;5096305;28;20055;-70
2022/07/19 02:47:07;;;;;;;10.27;5.97;;;19.80;99.90;;;;;;5095946;28;20044;-74
2022/07/19 02:49:33;;;;;;;8.73;5.67;;;19.80;99.90;;;;;;5095143;28;20084;-70
2022/07/19 02:51:58;;;;;;;9.43;5.30;;;19.80;99.90;;;;;;5095976;28;20052;-70
2022/07/19 02:54:24;;;;;;;12.07;5.40;;;19.70;99.90;;;;;;5095687;28;20047;-70
2022/07/19 02:56:50;;;;;;;8.47;5.40;;;19.70;99.90;;;;;;5095953;28;20047;-70
2022/07/19 02:59:15;;;;;;;10.07;5.90;;;19.70;99.90;;;;;;5095921;28;20126;-70
2022/07/19 03:01:41;;;;;;;9.07;6.03;;;19.70;99.90;;;;;;5094899;28;20044;-70
2022/07/19 03:04:07;;;;;;;9.60;6.00;;;19.70;99.90;;;;;;5095837;28;20044;-70
2022/07/19 03:06:32;;;;;;;11.13;5.57;;;19.70;99.90;;;;;;5095742;28;20044;-70
2022/07/19 03:08:58;;;;;;;10.13;5.77;;;19.60;99.90;;;;;;5095064;28;20040;-70
2022/07/19 03:11:24;;;;;;;8.43;6.10;;;19.60;99.90;;;;;;5096192;28;20126;-70
2022/07/19 03:13:49;;;;;;;12.60;6.43;;;19.60;99.90;;;;;;5095660;28;20047;-70
2022/07/19 03:16:15;;;;;;;8.13;5.50;;;19.60;99.90;;;;;;5095631;28;20075;-71
2022/07/19 03:18:41;;;;;;;10.57;6.10;;;19.50;99.90;;;;;;5095586;28;20044;-70
2022/07/19 03:21:07;;;;;;;7.63;5.10;;;19.50;99.90;;;;;;5096268;28;20105;-70
2022/07/19 03:23:34;;;;;;;8.70;5.63;;;19.50;99.90;;;;;;5095396;28;20040;-70
2022/07/19 03:26:01;;;;;;;12.43;6.03;;;19.50;99.90;;;;;;5095327;28;20043;-70
2022/07/19 03:28:26;;;;;;;8.67;5.90;;;19.50;99.90;;;;;;5096024;28;20113;-70
2022/07/19 03:30:52;;;;;;;8.90;6.27;;;19.50;99.90;;;;;;5094300;28;20048;-70
2022/07/19 03:33:18;;;;;;;9.23;5.53;;;19.50;99.90;;;;;;5094851;28;20048;-70
2022/07/19 03:35:45;;;;;;;9.00;5.60;;;19.50;99.90;;;;;;5094859;28;20040;-70
2022/07/19 03:38:13;;;;;;;11.27;6.23;;;19.50;99.90;;;;;;5094012;28;20059;-70
2022/07/19 03:40:39;;;;;;;10.00;5.67;;;19.40;99.90;;;;;;5095052;28;20135;-70
2022/07/19 03:43:05;;;;;;;10.00;5.40;;;19.40;99.90;;;;;;5094766;28;20557;-70
2022/07/19 03:45:31;;;;;;;10.57;6.00;;;19.50;99.90;;;;;;5095169;28;20044;-70
2022/07/19 03:47:58;;;;;;;11.03;5.70;;;19.50;99.90;;;;;;5077796;28;20044;-71
2022/07/19 03:50:24;;;;;;;7.90;5.70;;;19.40;99.90;;;;;;5093705;28;20044;-70
2022/07/19 03:52:49;;;;;;;11.53;6.03;;;19.40;99.90;;;;;;5093886;28;20123;-70
2022/07/19 03:55:15;;;;;;;9.90;5.77;;;19.40;99.90;;;;;;5095383;28;20084;-71
2022/07/19 03:57:41;;;;;;;9.30;5.80;;;19.40;99.90;;;;;;5095049;28;20052;-70
2022/07/19 04:00:07;;;;;;;9.93;6.43;;;19.40;99.90;;;;;;5095570;28;20127;-70
2022/07/19 04:02:33;;;;;;;13.50;6.20;;;19.40;99.90;;;;;;5094734;28;20105;-70
2022/07/19 04:04:58;;;;;;;10.57;5.10;;;19.40;99.90;;;;;;5094467;28;20360;-70
2022/07/19 04:07:24;;;;;;;8.77;5.60;;;19.40;99.90;;;;;;5094544;28;20036;-70
2022/07/19 04:09:50;;;;;;;10.30;6.00;;;19.40;99.90;;;;;;5095314;28;20051;-70
2022/07/19 04:12:15;;;;;;;8.70;5.57;;;19.40;99.90;;;;;;5095034;28;20491;-73
2022/07/19 04:14:41;;;;;;;9.70;5.67;;;19.40;99.90;;;;;;5093517;28;20395;-70
2022/07/19 04:17:07;;;;;;;9.80;5.77;;;19.40;99.90;;;;;;5092916;28;20048;-70
2022/07/19 04:19:33;;;;;;;8.93;5.70;;;19.40;99.90;;;;;;5094870;28;20048;-70
2022/07/19 04:21:58;;;;;;;10.20;5.97;;;19.40;99.90;;;;;;5094924;28;20051;-70
2022/07/19 04:24:24;;;;;;;8.17;5.50;;;19.40;99.90;;;;;;5094569;28;20048;-70
2022/07/19 04:26:50;;;;;;;11.40;6.57;;;19.40;99.90;;;;;;5094745;28;20455;-71
2022/07/19 04:29:15;;;;;;;11.90;5.80;;;19.50;99.90;;;;;;5094075;28;20052;-71
2022/07/19 04:31:41;;;;;;;9.97;6.30;;;19.50;99.90;;;;;;5093964;28;20043;-71
2022/07/19 04:34:07;;;;;;;9.70;5.90;;;19.50;99.90;;;;;;5094147;28;20442;-71
2022/07/19 04:36:32;;;;;;;11.33;6.53;;;19.50;99.90;;;;;;5093052;28;20051;-70
2022/07/19 04:38:58;;;;;;;9.90;5.70;;;19.50;99.90;;;;;;5094045;28;20097;-70
2022/07/19 04:41:24;;;;;;;9.97;6.03;;;19.60;99.90;;;;;;5094047;28;20073;-71
2022/07/19 04:43:49;;;;;;;12.80;6.47;;;19.60;99.90;;;;;;5094198;28;20060;-70
2022/07/19 04:46:15;;;;;;;12.80;6.73;;;19.60;99.90;;;;;;5092650;28;20060;-70
2022/07/19 04:48:41;;;;;;;9.53;6.50;;;19.60;99.90;;;;;;5094404;28;20056;-70
2022/07/19 04:51:07;;;;;;;9.73;6.17;;;19.60;99.90;;;;;;5094477;28;20171;-70
2022/07/19 04:53:33;;;;;;;9.33;5.77;;;19.70;99.90;;;;;;5093739;28;20089;-70
2022/07/19 04:55:58;;;;;;;12.50;5.90;;;19.70;99.90;;;;;;5092396;28;20040;-70
2022/07/19 04:58:24;;;;;;;10.60;6.37;;;19.80;99.90;;;;;;5093536;28;20100;-70
2022/07/19 05:00:50;;;;;;;9.77;5.67;;;19.80;99.90;;;;;;5093802;28;20040;-70
2022/07/19 05:03:15;;;;;;;10.07;5.67;;;19.90;99.90;;;;;;5094018;28;20527;-70
2022/07/19 05:05:41;;;;;;;9.23;5.80;;;20.00;99.90;;;;;;5092451;28;20064;-70
2022/07/19 05:08:07;;;;;;;8.47;6.00;;;20.00;99.90;;;;;;5093612;28;20046;-70
2022/07/19 05:10:32;;;;;;;9.03;5.87;;;20.10;99.90;;;;;;5092416;28;20036;-70
2022/07/19 05:12:58;;;;;;;9.33;5.87;;;20.10;99.90;;;;;;5093613;28;20044;-70
2022/07/19 05:15:24;;;;;;;8.27;5.67;;;20.20;99.90;;;;;;5059053;28;20110;-71
2022/07/19 05:17:53;;;;;;;9.67;5.63;;;20.30;99.90;;;;;;5093643;28;20086;-71
2022/07/19 05:20:18;;;;;;;10.23;5.83;;;20.40;99.90;;;;;;5075780;28;20132;-70
2022/07/19 05:22:44;;;;;;;10.67;5.20;;;20.50;99.90;;;;;;5093522;28;20127;-70
2022/07/19 05:25:10;;;;;;;13.20;5.67;;;20.60;99.90;;;;;;5093388;28;20044;-70
2022/07/19 05:27:36;;;;;;;9.70;5.50;;;20.70;99.90;;;;;;5093705;28;20052;-70
2022/07/19 05:30:04;;;;;;;10.60;5.47;;;20.90;99.90;;;;;;5093996;28;20044;-70
2022/07/19 05:32:30;;;;;;;11.60;6.67;;;21.00;99.90;;;;;;5094160;28;20076;-70
2022/07/19 05:34:56;;;;;;;11.70;5.60;;;21.20;99.90;;;;;;5092531;28;20514;-70
2022/07/19 05:37:21;;;;;;;9.53;5.70;;;21.30;99.90;;;;;;5093696;28;20040;-80
2022/07/19 05:39:47;;;;;;;9.83;5.80;;;21.40;99.70;;;;;;5092116;28;20480;-72
2022/07/19 05:42:13;;;;;;;9.63;5.37;;;21.60;99.00;;;;;;5093413;28;20142;-72
2022/07/19 05:44:39;;;;;;;10.27;6.03;;;21.70;98.90;;;;;;5093212;28;20067;-71
2022/07/19 05:47:04;;;;;;;15.23;6.23;;;21.90;98.60;;;;;;5093265;28;20048;-74
2022/07/19 05:49:30;;;;;;;9.90;6.27;;;22.10;97.50;;;;;;5093814;28;20051;-74
2022/07/19 05:51:56;;;;;;;8.40;5.53;;;22.20;97.40;;;;;;5093784;28;20122;-72
2022/07/19 05:54:21;;;;;;;9.10;6.10;;;22.40;98.30;;;;;;5093240;28;20140;-72
2022/07/19 05:56:47;;;;;;;10.63;6.03;;;22.80;98.40;;;;;;5093476;28;20048;-73
2022/07/19 05:59:13;;;;;;;10.90;5.87;;;23.70;96.50;;;;;;5097099;28;20488;-73
2022/07/19 06:01:38;;;;;;;12.10;6.10;;;24.70;92.70;;;;;;5096089;28;20048;-72
2022/07/19 06:04:04;;;;;;;8.93;5.97;;;25.60;88.40;;;;;;5097048;28;20369;-73
2022/07/19 06:06:32;;;;;;;10.37;5.63;;;26.30;80.30;;;;;;5096551;28;20093;-74
2022/07/19 06:08:59;;;;;;;11.97;5.90;;;27.00;72.20;;;;;;5096012;28;20074;-74
2022/07/19 06:11:25;;;;;;;8.20;5.10;;;27.70;91.40;;;;;;5096926;28;20055;-74
2022/07/19 06:13:52;;;;;;;8.07;5.63;;;28.30;84.70;;;;;;5096851;28;20048;-74
2022/07/19 06:16:18;;;;;;;7.47;5.27;;;28.70;62.10;;;;;;5096818;28;20097;-76
2022/07/19 06:18:44;;;;;;;8.70;5.53;;;;;;;;;;5096761;28;20043;-78
2022/07/19 06:21:12;;;;;;;12.73;5.70;;;;;;;;;;5096931;28;20086;-74
2022/07/19 06:23:39;;;;;;;8.07;5.50;;;;;;;;;;5096654;28;20051;-74
2022/07/19 06:26:15;;;;;;;8.17;5.10;;;;;;;;;;5096497;28;20036;-74
2022/07/19 06:28:41;;;;;;;8.17;5.47;;;30.40;87.10;;;;;;5096615;28;20051;-72
2022/07/19 06:31:08;;;;;;;12.00;5.50;;;30.80;57.40;;;;;;5095308;28;20040;-72
2022/07/19 06:33:34;;;;;;;6.55;4.78;;;;;;;;;;5095230;28;20499;-72
2022/07/19 06:36:00;;;;;;;9.00;4.88;;;;;;;;;;5096312;28;20048;-73
2022/07/19 06:38:26;;;;;;;8.40;5.30;;;31.70;84.00;;;;;;5096326;28;20472;-73
2022/07/19 06:40:52;;;;;;;10.65;4.72;;;31.90;48.30;;;;;;5096272;28;20530;-72
2022/07/19 06:43:18;;;;;;;12.95;4.72;;;;;;;;;;5096145;28;20063;-73
2022/07/19 06:45:44;;;;;;;8.73;4.60;;;32.80;78.70;;;;;;5096003;28;20094;-75
2022/07/19 06:48:09;;;;;;;7.32;4.88;;;33.00;46.00;;;;;;5096453;28;20468;-72
2022/07/19 06:50:35;;;;;;;10.38;4.53;;;;;;;;;;5078247;28;20087;-72
2022/07/19 06:53:01;;;;;;;7.03;4.30;;;33.40;79.70;;;;;;5095014;28;20052;-72
2022/07/19 06:55:27;;;;;;;10.43;5.18;;;33.60;44.80;;;;;;5096308;28;20066;-72
2022/07/19 06:57:53;;;;;;;7.07;4.20;;;33.90;43.90;;;;;;5095910;28;20491;-73
2022/07/19 07:00:18;;;;;;;10.00;4.72;;;34.20;43.50;;;;;;5095964;28;20123;-72
2022/07/19 07:02:44;;;;;;;15.52;4.60;;;34.20;43.10;;;;;;5095882;28;20438;-73
2022/07/19 07:05:11;;;;;;;7.80;4.22;;;34.50;42.60;;;;;;5095887;28;20079;-73
2022/07/19 07:07:38;;;;;;;8.82;4.18;;;;;;;;;;5094823;28;20051;-73
2022/07/19 07:10:06;;;;;;;7.70;4.40;;;;;;;;;;5095221;28;20131;-72
2022/07/19 07:12:32;;;;;;;10.23;4.18;;;;;;;;;;5095692;28;20048;-73
2022/07/19 07:14:59;;;;;;;6.97;4.20;;;;;;;;;;5095403;28;20122;-72
2022/07/19 07:17:24;;;;;;;6.07;3.92;;;36.00;51.90;;;;;;5095481;28;20044;-72
2022/07/19 07:19:50;;;;;;;8.85;4.43;;;35.80;41.70;;;;;;5095085;28;20071;-73
2022/07/19 07:22:16;;;;;;;8.18;4.15;;;36.10;40.40;;;;;;5095023;28;20048;-72
2022/07/19 07:24:41;;;;;;;7.20;3.70;;;36.30;40.00;;;;;;5096068;28;20052;-73
2022/07/19 07:27:07;;;;;;;7.85;4.07;;;36.40;39.60;;;;;;5095218;28;20498;-72
2022/07/19 07:29:33;;;;;;;8.60;4.13;;;36.80;39.00;;;;;;5095320;28;20044;-73
2022/07/19 07:31:59;;;;;;;9.10;3.90;;;36.80;38.90;;;;;;5094297;28;20097;-73
2022/07/19 07:34:24;;;;;;;8.95;4.18;;;36.80;38.50;;;;;;5095190;28;20052;-72
2022/07/19 07:36:50;;;;;;;7.13;3.50;;;37.00;38.30;;;;;;5094127;28;20048;-73
2022/07/19 07:39:16;;;;;;;5.53;3.28;;;37.00;38.10;;;;;;5095105;28;20044;-72
2022/07/19 07:41:42;;;;;;;8.25;4.10;;;36.90;38.00;;;;;;5095062;28;20480;-73
2022/07/19 07:44:08;;;;;;;8.88;3.42;;;36.70;38.00;;;;;;5094416;28;20059;-73
2022/07/19 07:46:34;;;;;;;8.95;3.88;;;37.00;38.30;;;;;;5094833;28;20040;-73
2022/07/19 07:49:00;;;;;;;6.03;3.15;;;;;;;;;;5095497;28;20396;-73
2022/07/19 07:51:26;;;;;;;6.72;3.40;;;;;;;;;;5094971;28;20048;-72
2022/07/19 07:53:52;;;;;;;6.85;3.70;;;;;;;;;;5094815;28;20170;-73
2022/07/19 07:56:18;;;;;;;6.65;3.25;;;;;;;;;;5095080;28;20044;-73
2022/07/19 07:58:44;;;;;;;7.93;3.25;;;;;;;;;;5094601;28;20047;-73
2022/07/19 08:01:10;;;;;;;5.40;3.10;;;;;;;;;;5094761;28;20079;-73
2022/07/19 08:03:36;;;;;;;5.22;3.10;;;;;;;;;;5095205;28;20118;-73
2022/07/19 08:06:02;;;;;;;6.53;3.47;;;;;;;;;;5094606;28;20048;-73
2022/07/19 08:08:29;;;;;;;7.65;3.72;;;;;;;;;;5094633;28;20051;-73
2022/07/19 08:10:55;;;;;;;7.80;3.70;;;;;;;;;;5094409;28;20075;-73
2022/07/19 08:13:21;;;;;;;5.80;3.38;;;;;;;;;;5093572;28;20487;-73
2022/07/19 08:15:47;;;;;;;5.65;3.22;;;39.00;70.20;;;;;;5094457;28;20036;-73
2022/07/19 08:18:13;;;;;;;6.05;3.20;;;;;;;;;;5093196;28;20467;-73
2022/07/19 08:20:39;;;;;;;8.45;3.40;;;39.40;35.90;;;;;;5093772;28;20047;-73
2022/07/19 08:23:04;;;;;;;6.50;3.65;;;39.40;36.20;;;;;;5093856;28;20109;-73
2022/07/19 08:25:32;;;;;;;6.82;3.15;;;39.50;36.40;;;;;;5093017;28;20048;-73
2022/07/19 08:27:58;;;;;;;6.63;3.28;;;39.70;35.70;;;;;;5093231;28;20052;-73
2022/07/19 08:30:24;;;;;;;5.47;3.35;;;39.70;35.20;;;;;;5094249;28;20044;-73
2022/07/19 08:32:49;;;;;;;8.18;3.33;;;39.70;34.90;;;;;;5092974;28;20131;-73
2022/07/19 08:35:15;;;;;;;5.50;3.10;;;39.50;35.20;;;;;;5094162;28;20055;-73
2022/07/19 08:37:41;;;;;;;7.03;3.10;;;39.30;35.50;;;;;;5093010;28;20055;-73
2022/07/19 08:40:07;;;;;;;6.05;3.03;;;39.30;35.40;;;;;;5094052;28;20093;-73
2022/07/19 08:42:33;;;;;;;9.77;3.00;;;39.00;35.40;;;;;;5094569;28;20044;-74
2022/07/19 08:45:05;;;;;;;8.30;2.90;;;38.90;60.40;;;;;;5093488;28;20064;-74
2022/07/19 08:47:31;;;;;;;10.55;3.58;;;38.20;35.80;;;;;;5093494;28;20039;-74
2022/07/19 08:50:01;;;;;;;7.20;2.88;;;37.70;36.40;;;;;;5094428;28;20440;-74
2022/07/19 08:52:27;;;;;;;7.22;2.78;;;37.10;36.90;;;;;;5092852;28;20051;-74
2022/07/19 08:54:55;;;;;;;4.30;2.55;;;36.60;36.80;;;;;;5092863;28;20048;-74
2022/07/19 09:00:06;;;;;;;6.80;2.90;;;35.80;36.30;;;;;;5093044;28;20052;-74
2022/07/19 09:02:32;;;;;;;5.35;2.65;;;35.20;36.70;;;;;;5093749;28;20048;-73
2022/07/19 09:05:16;;;;;;;12.55;3.00;;;35.00;37.10;;;;;;5076134;28;20052;-73
2022/07/19 09:07:58;;;;;;;9.48;3.00;;;34.80;38.00;;;;;;5094047;28;20478;-73
2022/07/19 09:10:24;;;;;;;7.40;2.80;;;;;;;;;;5093724;28;20480;-73
2022/07/19 09:13:08;;;;;;;5.40;2.60;;;34.20;66.40;;;;;;5075760;28;20051;-74
2022/07/19 09:15:39;;;;;;;6.93;2.50;;;34.30;52.00;;;;;;5093606;28;20066;-73
2022/07/19 09:18:06;;;;;;;8.02;2.67;;;34.30;51.80;;;;;;5094077;28;20372;-73
2022/07/19 09:20:32;;;;;;;4.90;2.60;;;34.30;51.00;;;;;;5092852;28;20052;-73
2022/07/19 09:22:58;;;;;;;5.22;2.45;;;34.30;50.60;;;;;;5093531;28;20127;-73
2022/07/19 09:25:38;;;;;;;7.45;2.47;;;34.10;38.70;;;;;;5093416;28;20097;-73
2022/07/19 09:28:04;;;;;;;4.32;2.50;;;34.10;39.40;;;;;;5093474;28;20087;-73
2022/07/19 09:30:36;;;;;;;5.88;2.63;;;34.00;39.50;;;;;;5093415;28;20484;-73
2022/07/19 09:33:17;;;;;;;6.05;2.60;;;33.90;39.40;;;;;;5094790;28;20048;-73
2022/07/19 09:35:54;;;;;;;6.13;2.35;;;33.70;39.40;;;;;;5096503;28;20058;-73
2022/07/19 09:38:34;;;;;;;6.28;2.40;;;33.60;39.40;;;;;;5096781;28;20040;-73
2022/07/19 09:41:19;;;;;;;7.95;3.03;;;33.60;39.40;;;;;;5096200;28;20046;-73
2022/07/19 09:43:51;;;;;;;8.70;2.80;;;33.50;39.70;;;;;;5097100;28;20083;-73
2022/07/19 09:46:33;;;;;;;7.95;2.78;;;33.60;40.00;;;;;;5096216;28;20052;-73
2022/07/19 09:49:17;;;;;;;7.85;3.00;;;33.60;39.70;;;;;;5097164;28;20048;-73
2022/07/19 09:51:45;;;;;;;7.30;2.50;;;33.60;39.70;;;;;;5096620;28;20087;-73
2022/07/19 09:54:15;;;;;;;8.48;2.50;;;33.50;39.10;;;;;;5098004;28;20373;-73
2022/07/19 09:56:43;;;;;;;6.43;2.63;;;33.40;39.10;;;;;;5096986;28;20051;-73
2022/07/19 09:59:09;;;;;;;6.13;2.58;;;33.40;39.10;;;;;;5095819;28;20100;-73
2022/07/19 10:01:36;;;;;;;5.55;2.50;;;33.40;39.00;;;;;;5097091;28;20051;-73
2022/07/19 10:04:10;;;;;;;7.25;2.80;;;33.30;38.90;;;;;;5096557;28;20051;-73
2022/07/19 10:06:37;;;;;;;5.97;2.38;;;33.30;38.80;;;;;;5096402;28;20055;-73
2022/07/19 10:09:06;;;;;;;6.78;2.60;;;33.20;38.90;;;;;;5095975;28;20058;-73
2022/07/19 10:11:32;;;;;;;7.65;2.60;;;33.20;38.90;;;;;;5096854;28;20541;-73
2022/07/19 10:13:58;;;;;;;6.28;2.53;;;33.20;38.50;;;;;;5095880;28;20126;-73
2022/07/19 10:16:53;;;;;;;4.60;2.30;;;33.20;38.50;;;;;;5096819;28;20109;-73
2022/07/19 10:19:37;;;;;;;;;;;33.20;38.80;;;;;;5087694;28;20487;-73
2022/07/19 10:22:03;;;;;;;8.70;2.50;;;33.20;39.50;;;;;;5095789;28;19926;-73
2022/07/19 10:24:44;;;;;;;6.13;2.35;;;33.20;38.50;;;;;;5095748;28;20294;-73
2022/07/19 10:27:10;;;;;;;5.78;2.30;;;33.20;37.90;;;;;;5096531;28;20136;-73
2022/07/19 10:29:36;;;;;;;6.38;2.42;;;33.20;38.00;;;;;;5097185;28;20399;-73
2022/07/19 10:32:10;;;;;;;4.13;2.33;;;33.20;38.10;;;;;;5096429;28;20052;-73
2022/07/19 10:34:37;;;;;;;6.45;2.75;;;33.20;38.40;;;;;;5096369;28;20117;-73
2022/07/19 10:37:03;;;;;;;5.10;2.70;;;33.30;38.30;;;;;;5096410;28;20048;-73
2022/07/19 10:39:38;;;;;;;9.77;2.50;;;33.30;38.20;;;;;;5078574;28;20048;-73
2022/07/19 10:42:13;;;;;;;9.90;2.30;;;33.30;37.90;;;;;;5095287;28;20055;-73
2022/07/19 10:44:57;;;;;;;7.97;2.47;;;33.30;37.90;;;;;;5096530;28;20139;-73
2022/07/19 10:47:45;;;;;;;6.28;2.70;;;33.30;37.60;;;;;;5096752;28;20044;-73
2022/07/19 10:50:19;;;;;;;5.15;2.30;;;33.20;36.40;;;;;;5095833;28;20403;-73
2022/07/19 10:52:46;;;;;;;4.55;2.40;;;33.30;36.80;;;;;;5096711;28;20047;-73
2022/07/19 10:55:18;;;;;;;6.97;1.90;;;33.30;36.60;;;;;;5095705;28;20052;-73
2022/07/19 10:57:49;;;;;;;6.80;2.10;;;33.30;36.00;;;;;;5078096;28;20082;-73
2022/07/19 11:00:28;;;;;;;3.67;2.10;;;33.30;35.90;;;;;;5096057;28;20055;-73
2022/07/19 11:03:22;;;;;;;4.32;1.90;;;33.40;36.80;;;;;;5095895;28;20135;-73
2022/07/19 11:06:01;;;;;;;5.10;2.30;;;33.30;36.20;;;;;;5094620;28;20102;-73
2022/07/19 11:08:38;;;;;;;7.05;2.30;;;33.30;36.00;;;;;;5094830;28;20135;-73
2022/07/19 11:11:23;;;;;;;4.28;1.80;;;33.30;35.50;;;;;;5095725;28;20472;-73
2022/07/19 11:13:57;;;;;;;7.22;2.75;;;33.40;36.40;;;;;;5095781;28;20098;-72
2022/07/19 11:16:28;;;;;;;5.68;2.05;;;33.40;36.70;;;;;;5095640;28;20115;-74
2022/07/19 11:19:07;;;;;;;4.85;1.80;;;33.40;36.70;;;;;;5095546;28;20055;-82
2022/07/19 11:21:36;;;;;;;7.35;2.20;;;33.40;36.50;;;;;;5095744;28;20381;-79
2022/07/19 11:24:03;;;;;;;5.38;2.15;;;33.40;36.10;;;;;;5111754;28;20157;-80
2022/07/19 11:26:36;;;;;;;5.45;1.90;;;33.40;35.90;;;;;;5095414;28;20040;-76
2022/07/19 11:29:02;;;;;;;5.43;1.95;;;33.40;36.20;;;;;;5095035;28;20070;-79
2022/07/19 11:31:28;;;;;;;5.13;2.35;;;33.40;35.60;;;;;;5095537;28;20460;-78
2022/07/19 11:33:57;;;;;;;4.32;2.08;;;33.40;35.00;;;;;;5095579;28;20090;-77
2022/07/19 11:36:24;;;;;;;4.20;1.85;;;33.50;35.00;;;;;;5095589;28;20043;-75
2022/07/19 11:38:52;;;;;;;2.80;1.45;;;33.40;35.10;;;;;;5095184;28;20060;-77
2022/07/19 11:41:30;;;;;;;5.15;1.70;;;33.50;34.50;;;;;;5094139;28;20044;-74
2022/07/19 11:43:58;;;;;;;4.53;1.77;;;33.50;34.20;;;;;;5095028;28;20095;-74
2022/07/19 11:46:29;;;;;;;5.78;2.00;;;33.50;34.50;;;;;;5095754;28;20055;-76
2022/07/19 11:49:00;;;;;;;9.85;2.00;;;33.50;34.70;;;;;;5095812;28;20044;-76
2022/07/19 11:51:26;;;;;;;4.38;1.73;;;33.50;35.20;;;;;;5095509;28;20403;-72
2022/07/19 11:53:55;;;;;;;3.60;1.95;;;33.50;35.40;;;;;;5093907;28;20047;-77
2022/07/19 11:56:32;;;;;;;4.63;1.73;;;33.50;35.60;;;;;;5094327;28;20468;-76
2022/07/19 11:59:00;;;;;;;6.15;2.03;;;33.50;36.10;;;;;;5094804;28;20063;-78
2022/07/19 12:01:34;;;;;;;6.85;2.03;;;33.50;36.00;;;;;;5093764;28;20051;-80
2022/07/19 12:04:07;;;;;;;;;;;33.50;36.10;;;;;;5094503;28;20094;-79
2022/07/19 12:06:37;;;;;;;4.03;2.08;;;33.50;36.60;;;;;;5094668;28;19973;-75
2022/07/19 12:09:17;;;;;;;4.88;2.20;;;33.50;36.30;;;;;;5094425;28;20079;-76
2022/07/19 12:11:50;;;;;;;4.45;2.00;;;33.50;36.00;;;;;;5094648;28;20083;-71
2022/07/19 12:14:17;;;;;;;6.78;2.10;;;33.50;36.00;;;;;;5094394;28;20095;-72
2022/07/19 12:16:44;;;;;;;8.95;2.05;;;33.60;36.20;;;;;;5094415;28;20089;-73
2022/07/19 12:19:12;;;;;;;4.68;2.30;;;33.50;36.30;;;;;;5094452;28;20052;-73
2022/07/19 12:21:40;;;;;;;5.72;2.10;;;33.50;36.50;;;;;;5076736;28;20392;-73
2022/07/19 12:24:12;;;;;;;5.70;1.80;;;33.40;36.80;;;;;;5094634;28;20055;-73
2022/07/19 12:26:41;;;;;;;5.93;2.10;;;33.50;36.50;;;;;;5092830;28;20036;-74
2022/07/19 12:29:20;;;;;;;7.13;2.05;;;33.60;36.30;;;;;;5093448;28;20468;-74
2022/07/19 12:31:47;;;;;;;10.35;2.45;;;33.60;36.50;;;;;;5094173;28;20048;-74
2022/07/19 12:34:14;;;;;;;4.88;2.33;;;33.60;36.60;;;;;;5094146;28;20086;-70
2022/07/19 12:36:40;;;;;;;7.35;2.00;;;33.60;36.90;;;;;;5092351;28;20488;-77
2022/07/19 12:39:17;;;;;;;5.00;2.00;;;33.60;37.50;;;;;;5093708;28;20131;-72
2022/07/19 12:42:01;;;;;;;7.93;2.20;;;33.60;37.00;;;;;;5092598;28;20048;-73
2022/07/19 12:44:27;;;;;;;4.28;2.10;;;33.70;37.70;;;;;;5093364;28;20052;-73
2022/07/19 12:46:54;;;;;;;10.95;2.38;;;33.70;37.00;;;;;;5091995;28;20044;-74
2022/07/19 12:49:20;;;;;;;6.25;2.33;;;33.70;37.20;;;;;;5093294;28;20154;-72
2022/07/19 12:51:46;;;;;;;4.60;2.15;;;33.80;37.10;;;;;;5093101;28;20540;-77
2022/07/19 12:54:12;;;;;;;8.23;2.33;;;33.80;36.80;;;;;;5092829;28;20048;-73
2022/07/19 12:56:39;;;;;;;4.68;2.33;;;33.80;36.70;;;;;;5093052;28;20056;-73
2022/07/19 13:01:50;;;;;;;4.15;1.73;;;33.80;36.80;;;;;;5092479;28;20052;-71